sensor_id;sensor_type;location;lat;lon;timestamp;pressure;altitude;pressure_sealevel;temperature;humidity
65276;BME280;51875;49.994;14.052;2023-05-23T00:00:14;97867.00;;;16.37;100.00
65276;BME280;51875;49.994;14.052;2023-05-23T00:01:50;97858.31;;;16.21;100.00
65276;BME280;51875;49.994;14.052;2023-05-23T00:03:09;97862.16;;;16.15;100.00
65276;BME280;51875;49.994;14.052;2023-05-23T00:04:25;97858.09;;;16.24;100.00
65276;BME280;51875;49.994;14.052;2023-05-23T00:05:41;97862.66;;;16.36;100.00
65276;BME280;51875;49.994;14.052;2023-05-23T00:06:56;97856.88;;;16.44;100.00
65276;BME280;51875;49.994;14.052;2023-05-23T00:08:12;97856.06;;;16.44;100.00
65276;BME280;51875;49.994;14.052;2023-05-23T00:09:27;97859.19;;;16.36;100.00
65276;BME280;51875;49.994;14.052;2023-05-23T00:10:44;97857.09;;;16.41;100.00
65276;BME280;51875;49.994;14.052;2023-05-23T00:12:00;97852.00;;;16.52;100.00
65276;BME280;51875;49.994;14.052;2023-05-23T00:13:16;97847.19;;;16.59;100.00
65276;BME280;51875;49.994;14.052;2023-05-23T00:14:31;97843.59;;;16.60;100.00
65276;BME280;51875;49.994;14.052;2023-05-23T00:15:48;97844.59;;;16.72;100.00
65276;BME280;51875;49.994;14.052;2023-05-23T00:17:03;97848.31;;;16.70;100.00
65276;BME280;51875;49.994;14.052;2023-05-23T00:18:19;97845.75;;;16.68;100.00
65276;BME280;51875;49.994;14.052;2023-05-23T00:19:35;97842.25;;;16.67;100.00
65276;BME280;51875;49.994;14.052;2023-05-23T00:20:51;97839.50;;;16.69;100.00
65276;BME280;51875;49.994;14.052;2023-05-23T00:22:06;97824.13;;;16.76;100.00
65276;BME280;51875;49.994;14.052;2023-05-23T00:23:22;97831.59;;;16.69;100.00
65276;BME280;51875;49.994;14.052;2023-05-23T00:24:39;97819.25;;;16.70;100.00
65276;BME280;51875;49.994;14.052;2023-05-23T00:25:54;97829.91;;;16.39;100.00
65276;BME280;51875;49.994;14.052;2023-05-23T00:27:10;97833.59;;;16.36;100.00
65276;BME280;51875;49.994;14.052;2023-05-23T00:28:26;97828.22;;;16.38;100.00
65276;BME280;51875;49.994;14.052;2023-05-23T00:29:42;97826.59;;;16.06;100.00
65276;BME280;51875;49.994;14.052;2023-05-23T00:30:57;97819.34;;;15.95;100.00
65276;BME280;51875;49.994;14.052;2023-05-23T00:32:13;97827.47;;;16.07;100.00
65276;BME280;51875;49.994;14.052;2023-05-23T00:33:30;97827.63;;;16.18;100.00
65276;BME280;51875;49.994;14.052;2023-05-23T00:34:47;97828.88;;;16.42;100.00
65276;BME280;51875;49.994;14.052;2023-05-23T00:36:03;97825.84;;;16.48;100.00
65276;BME280;51875;49.994;14.052;2023-05-23T00:37:19;97820.84;;;16.43;100.00
65276;BME280;51875;49.994;14.052;2023-05-23T00:38:34;97820.19;;;16.25;100.00
65276;BME280;51875;49.994;14.052;2023-05-23T00:39:51;97820.38;;;16.51;100.00
65276;BME280;51875;49.994;14.052;2023-05-23T00:41:07;97815.66;;;16.71;100.00
65276;BME280;51875;49.994;14.052;2023-05-23T00:42:22;97821.53;;;16.89;99.99
65276;BME280;51875;49.994;14.052;2023-05-23T00:43:38;97824.50;;;16.84;100.00
65276;BME280;51875;49.994;14.052;2023-05-23T00:44:54;97829.69;;;16.71;100.00
65276;BME280;51875;49.994;14.052;2023-05-23T00:46:10;97831.50;;;16.71;100.00
65276;BME280;51875;49.994;14.052;2023-05-23T00:47:26;97828.84;;;16.71;100.00
65276;BME280;51875;49.994;14.052;2023-05-23T00:48:42;97830.16;;;16.78;99.50
65276;BME280;51875;49.994;14.052;2023-05-23T00:49:57;97827.63;;;16.76;100.00
65276;BME280;51875;49.994;14.052;2023-05-23T00:51:14;97827.44;;;16.79;100.00
65276;BME280;51875;49.994;14.052;2023-05-23T00:52:29;97828.00;;;16.70;100.00
65276;BME280;51875;49.994;14.052;2023-05-23T00:53:45;97820.16;;;16.54;100.00
65276;BME280;51875;49.994;14.052;2023-05-23T00:55:01;97825.91;;;16.75;100.00
65276;BME280;51875;49.994;14.052;2023-05-23T00:56:17;97822.44;;;16.75;100.00
65276;BME280;51875;49.994;14.052;2023-05-23T00:57:33;97836.59;;;16.74;100.00
65276;BME280;51875;49.994;14.052;2023-05-23T00:58:50;97838.78;;;16.52;100.00
65276;BME280;51875;49.994;14.052;2023-05-23T01:00:11;97849.41;;;15.93;100.00
65276;BME280;51875;49.994;14.052;2023-05-23T01:01:27;97857.50;;;15.74;100.00
65276;BME280;51875;49.994;14.052;2023-05-23T01:02:44;97861.81;;;15.60;100.00
65276;BME280;51875;49.994;14.052;2023-05-23T01:04:02;97855.25;;;15.67;100.00
65276;BME280;51875;49.994;14.052;2023-05-23T01:05:20;97865.25;;;15.77;100.00
65276;BME280;51875;49.994;14.052;2023-05-23T01:06:36;97864.41;;;15.76;100.00
65276;BME280;51875;49.994;14.052;2023-05-23T01:07:53;97863.16;;;15.67;100.00
65276;BME280;51875;49.994;14.052;2023-05-23T01:09:08;97873.94;;;15.79;100.00
65276;BME280;51875;49.994;14.052;2023-05-23T01:10:28;97880.53;;;16.02;100.00
65276;BME280;51875;49.994;14.052;2023-05-23T01:13:28;97880.84;;;16.27;100.00
65276;BME280;51875;49.994;14.052;2023-05-23T01:15:07;97877.94;;;16.31;100.00
65276;BME280;51875;49.994;14.052;2023-05-23T01:16:57;97871.91;;;16.44;100.00
65276;BME280;51875;49.994;14.052;2023-05-23T01:18:25;97869.34;;;16.42;100.00
65276;BME280;51875;49.994;14.052;2023-05-23T01:19:58;97857.56;;;16.48;100.00
65276;BME280;51875;49.994;14.052;2023-05-23T01:21:20;97873.34;;;16.49;100.00
65276;BME280;51875;49.994;14.052;2023-05-23T01:27:34;97867.34;;;16.02;100.00
65276;BME280;51875;49.994;14.052;2023-05-23T01:28:55;97874.22;;;16.05;100.00
65276;BME280;51875;49.994;14.052;2023-05-23T01:30:17;97881.84;;;16.09;100.00
65276;BME280;51875;49.994;14.052;2023-05-23T01:31:35;97895.34;;;15.58;100.00
65276;BME280;51875;49.994;14.052;2023-05-23T01:32:53;97896.31;;;15.41;100.00
65276;BME280;51875;49.994;14.052;2023-05-23T01:34:11;97901.50;;;15.43;100.00
65276;BME280;51875;49.994;14.052;2023-05-23T01:35:28;97903.94;;;15.62;100.00
65276;BME280;51875;49.994;14.052;2023-05-23T01:36:44;97906.91;;;15.72;100.00
65276;BME280;51875;49.994;14.052;2023-05-23T01:38:01;97890.50;;;15.66;100.00
65276;BME280;51875;49.994;14.052;2023-05-23T01:39:16;97896.03;;;15.62;100.00
65276;BME280;51875;49.994;14.052;2023-05-23T01:40:32;97896.16;;;15.44;100.00
65276;BME280;51875;49.994;14.052;2023-05-23T01:41:48;97893.97;;;15.67;100.00
65276;BME280;51875;49.994;14.052;2023-05-23T01:43:04;97893.94;;;15.83;100.00
65276;BME280;51875;49.994;14.052;2023-05-23T01:44:20;97895.72;;;15.82;100.00
65276;BME280;51875;49.994;14.052;2023-05-23T01:45:36;97894.13;;;15.80;100.00
65276;BME280;51875;49.994;14.052;2023-05-23T01:46:52;97894.13;;;15.80;100.00
65276;BME280;51875;49.994;14.052;2023-05-23T01:48:08;97887.78;;;15.82;100.00
65276;BME280;51875;49.994;14.052;2023-05-23T01:49:26;97898.09;;;15.87;100.00
65276;BME280;51875;49.994;14.052;2023-05-23T01:50:42;97904.00;;;15.92;100.00
65276;BME280;51875;49.994;14.052;2023-05-23T01:52:01;97891.16;;;15.70;100.00
65276;BME280;51875;49.994;14.052;2023-05-23T01:53:19;97884.72;;;15.60;100.00
65276;BME280;51875;49.994;14.052;2023-05-23T01:54:36;97896.84;;;15.78;100.00
65276;BME280;51875;49.994;14.052;2023-05-23T01:55:53;97895.78;;;15.66;100.00
65276;BME280;51875;49.994;14.052;2023-05-23T01:57:10;97891.59;;;15.62;100.00
65276;BME280;51875;49.994;14.052;2023-05-23T01:58:26;97891.25;;;15.68;100.00
65276;BME280;51875;49.994;14.052;2023-05-23T01:59:41;97894.78;;;15.53;100.00
65276;BME280;51875;49.994;14.052;2023-05-23T02:00:57;97895.78;;;15.66;100.00
65276;BME280;51875;49.994;14.052;2023-05-23T02:02:13;97894.47;;;15.90;100.00
65276;BME280;51875;49.994;14.052;2023-05-23T02:03:29;97892.44;;;15.79;100.00
65276;BME280;51875;49.994;14.052;2023-05-23T02:04:45;97896.16;;;15.44;100.00
65276;BME280;51875;49.994;14.052;2023-05-23T02:06:00;97885.88;;;15.70;100.00
65276;BME280;51875;49.994;14.052;2023-05-23T02:07:16;97888.91;;;15.78;100.00
65276;BME280;51875;49.994;14.052;2023-05-23T02:08:33;97891.25;;;15.68;100.00
65276;BME280;51875;49.994;14.052;2023-05-23T02:09:48;97894.91;;;15.66;100.00
65276;BME280;51875;49.994;14.052;2023-05-23T02:11:04;97891.63;;;15.46;100.00
65276;BME280;51875;49.994;14.052;2023-05-23T02:12:20;97889.06;;;15.45;100.00
65276;BME280;51875;49.994;14.052;2023-05-23T02:13:35;97894.06;;;15.65;100.00
65276;BME280;51875;49.994;14.052;2023-05-23T02:14:53;97890.44;;;15.52;100.00
65276;BME280;51875;49.994;14.052;2023-05-23T02:16:09;97887.38;;;15.44;100.00
65276;BME280;51875;49.994;14.052;2023-05-23T02:17:25;97884.66;;;15.45;100.00
65276;BME280;51875;49.994;14.052;2023-05-23T02:18:41;97887.13;;;15.48;100.00
65276;BME280;51875;49.994;14.052;2023-05-23T02:19:57;97888.31;;;15.43;100.00
65276;BME280;51875;49.994;14.052;2023-05-23T02:21:12;97887.44;;;15.58;100.00
65276;BME280;51875;49.994;14.052;2023-05-23T02:22:28;97882.59;;;15.66;100.00
65276;BME280;51875;49.994;14.052;2023-05-23T02:23:43;97888.00;;;15.63;100.00
65276;BME280;51875;49.994;14.052;2023-05-23T02:24:59;97881.59;;;15.53;100.00
65276;BME280;51875;49.994;14.052;2023-05-23T02:26:14;97883.72;;;15.77;100.00
65276;BME280;51875;49.994;14.052;2023-05-23T02:27:30;97878.75;;;15.72;100.00
65276;BME280;51875;49.994;14.052;2023-05-23T02:28:46;97877.38;;;15.65;100.00
65276;BME280;51875;49.994;14.052;2023-05-23T02:30:01;97872.19;;;15.63;100.00
65276;BME280;51875;49.994;14.052;2023-05-23T02:31:18;97875.69;;;15.64;100.00
65276;BME280;51875;49.994;14.052;2023-05-23T02:32:33;97881.47;;;15.71;100.00
65276;BME280;51875;49.994;14.052;2023-05-23T02:33:49;97875.41;;;15.68;100.00
65276;BME280;51875;49.994;14.052;2023-05-23T02:35:05;97875.72;;;15.78;100.00
65276;BME280;51875;49.994;14.052;2023-05-23T02:36:20;97869.84;;;15.59;100.00
65276;BME280;51875;49.994;14.052;2023-05-23T02:37:36;97882.78;;;15.47;100.00
65276;BME280;51875;49.994;14.052;2023-05-23T02:38:51;97872.53;;;15.57;100.00
65276;BME280;51875;49.994;14.052;2023-05-23T02:40:07;97879.09;;;15.50;100.00
65276;BME280;51875;49.994;14.052;2023-05-23T02:41:23;97862.38;;;15.51;100.00
65276;BME280;51875;49.994;14.052;2023-05-23T02:42:39;97864.81;;;15.54;100.00
65276;BME280;51875;49.994;14.052;2023-05-23T02:43:55;97862.78;;;15.74;100.00
65276;BME280;51875;49.994;14.052;2023-05-23T02:45:10;97870.97;;;15.69;100.00
65276;BME280;51875;49.994;14.052;2023-05-23T02:46:26;97867.31;;;15.72;100.00
65276;BME280;51875;49.994;14.052;2023-05-23T02:47:41;97860.97;;;15.60;100.00
65276;BME280;51875;49.994;14.052;2023-05-23T02:48:57;97864.75;;;15.70;100.00
65276;BME280;51875;49.994;14.052;2023-05-23T02:50:13;97858.94;;;15.49;100.00
65276;BME280;51875;49.994;14.052;2023-05-23T02:51:28;97864.81;;;15.54;100.00
65276;BME280;51875;49.994;14.052;2023-05-23T02:52:44;97862.66;;;15.61;100.00
65276;BME280;51875;49.994;14.052;2023-05-23T02:54:00;97866.16;;;15.61;100.00
65276;BME280;51875;49.994;14.052;2023-05-23T02:55:15;97861.44;;;15.52;100.00
65276;BME280;51875;49.994;14.052;2023-05-23T02:56:30;97870.13;;;15.38;100.00
65276;BME280;51875;49.994;14.052;2023-05-23T02:57:46;97867.19;;;15.59;100.00
65276;BME280;51875;49.994;14.052;2023-05-23T02:59:02;97867.25;;;15.73;100.00
65276;BME280;51875;49.994;14.052;2023-05-23T03:00:18;97875.16;;;15.73;100.00
65276;BME280;51875;49.994;14.052;2023-05-23T03:01:33;97863.00;;;15.54;100.00
65276;BME280;51875;49.994;14.052;2023-05-23T03:02:49;97864.25;;;15.63;100.00
65276;BME280;51875;49.994;14.052;2023-05-23T03:04:05;97859.31;;;15.73;100.00
65276;BME280;51875;49.994;14.052;2023-05-23T03:05:21;97858.53;;;15.71;100.00
65276;BME280;51875;49.994;14.052;2023-05-23T03:06:36;97870.44;;;15.78;100.00
65276;BME280;51875;49.994;14.052;2023-05-23T03:07:52;97859.78;;;15.65;100.00
65276;BME280;51875;49.994;14.052;2023-05-23T03:09:09;97864.97;;;15.98;100.00
65276;BME280;51875;49.994;14.052;2023-05-23T03:10:24;97863.63;;;15.90;100.00
65276;BME280;51875;49.994;14.052;2023-05-23T03:11:40;97868.06;;;15.90;100.00
65276;BME280;51875;49.994;14.052;2023-05-23T03:12:56;97862.06;;;15.86;100.00
65276;BME280;51875;49.994;14.052;2023-05-23T03:14:11;97861.31;;;15.84;100.00
65276;BME280;51875;49.994;14.052;2023-05-23T03:15:26;97862.25;;;15.83;100.00
65276;BME280;51875;49.994;14.052;2023-05-23T03:16:42;97859.81;;;15.80;100.00
65276;BME280;51875;49.994;14.052;2023-05-23T03:17:58;97860.25;;;15.72;100.00
65276;BME280;51875;49.994;14.052;2023-05-23T03:19:13;97859.03;;;15.78;100.00
65276;BME280;51875;49.994;14.052;2023-05-23T03:20:29;97855.38;;;15.80;100.00
65276;BME280;51875;49.994;14.052;2023-05-23T03:21:45;97860.03;;;15.91;100.00
65276;BME280;51875;49.994;14.052;2023-05-23T03:23:00;97863.66;;;15.74;100.00
65276;BME280;51875;49.994;14.052;2023-05-23T03:24:16;97865.56;;;15.56;100.00
65276;BME280;51875;49.994;14.052;2023-05-23T03:25:32;97868.19;;;15.72;100.00
65276;BME280;51875;49.994;14.052;2023-05-23T03:26:47;97865.56;;;15.56;100.00
65276;BME280;51875;49.994;14.052;2023-05-23T03:28:03;97868.13;;;15.58;100.00
65276;BME280;51875;49.994;14.052;2023-05-23T03:29:18;97867.69;;;15.65;100.00
65276;BME280;51875;49.994;14.052;2023-05-23T03:30:34;97860.84;;;15.77;100.00
65276;BME280;51875;49.994;14.052;2023-05-23T03:31:49;97862.97;;;15.71;100.00
65276;BME280;51875;49.994;14.052;2023-05-23T03:33:05;97859.88;;;15.78;100.00
65276;BME280;51875;49.994;14.052;2023-05-23T03:34:21;97855.38;;;15.80;100.00
65276;BME280;51875;49.994;14.052;2023-05-23T03:35:38;97851.09;;;15.78;100.00
65276;BME280;51875;49.994;14.052;2023-05-23T03:36:53;97848.47;;;15.78;100.00
65276;BME280;51875;49.994;14.052;2023-05-23T03:38:09;97850.19;;;15.79;100.00
65276;BME280;51875;49.994;14.052;2023-05-23T03:39:25;97851.91;;;15.80;100.00
65276;BME280;51875;49.994;14.052;2023-05-23T03:40:40;97852.84;;;15.79;100.00
65276;BME280;51875;49.994;14.052;2023-05-23T03:41:56;97845.44;;;15.70;100.00
65276;BME280;51875;49.994;14.052;2023-05-23T03:43:12;97837.50;;;15.55;100.00
65276;BME280;51875;49.994;14.052;2023-05-23T03:44:28;97847.69;;;15.61;100.00
65276;BME280;51875;49.994;14.052;2023-05-23T03:45:43;97849.22;;;15.65;100.00
65276;BME280;51875;49.994;14.052;2023-05-23T03:46:59;97851.91;;;15.33;100.00
65276;BME280;51875;49.994;14.052;2023-05-23T03:48:14;97851.16;;;15.31;100.00
65276;BME280;51875;49.994;14.052;2023-05-23T03:49:30;97853.53;;;15.36;100.00
65276;BME280;51875;49.994;14.052;2023-05-23T03:50:46;97858.72;;;15.37;100.00
65276;BME280;51875;49.994;14.052;2023-05-23T03:52:01;97860.13;;;15.43;100.00
65276;BME280;51875;49.994;14.052;2023-05-23T03:53:17;97854.34;;;15.52;100.00
65276;BME280;51875;49.994;14.052;2023-05-23T03:54:32;97858.41;;;15.58;100.00
65276;BME280;51875;49.994;14.052;2023-05-23T03:55:48;97863.69;;;15.58;100.00
65276;BME280;51875;49.994;14.052;2023-05-23T03:57:03;97858.94;;;15.49;100.00
65276;BME280;51875;49.994;14.052;2023-05-23T03:58:19;97857.25;;;15.48;100.00
65276;BME280;51875;49.994;14.052;2023-05-23T03:59:35;97860.44;;;15.38;100.00
65276;BME280;51875;49.994;14.052;2023-05-23T04:00:50;97871.91;;;15.37;100.00
65276;BME280;51875;49.994;14.052;2023-05-23T04:02:07;97873.31;;;15.43;100.00
65276;BME280;51875;49.994;14.052;2023-05-23T04:03:23;97864.91;;;15.36;100.00
65276;BME280;51875;49.994;14.052;2023-05-23T04:04:40;97869.66;;;15.46;100.00
65276;BME280;51875;49.994;14.052;2023-05-23T04:05:56;97860.63;;;15.50;100.00
65276;BME280;51875;49.994;14.052;2023-05-23T04:07:11;97871.81;;;15.39;100.00
65276;BME280;51875;49.994;14.052;2023-05-23T04:08:29;97869.34;;;15.52;100.00
65276;BME280;51875;49.994;14.052;2023-05-23T04:09:48;97870.47;;;15.62;100.00
65276;BME280;51875;49.994;14.052;2023-05-23T04:11:03;97873.13;;;15.62;100.00
65276;BME280;51875;49.994;14.052;2023-05-23T04:12:19;97875.63;;;15.49;100.00
65276;BME280;51875;49.994;14.052;2023-05-23T04:13:36;97870.00;;;15.56;100.00
65276;BME280;51875;49.994;14.052;2023-05-23T04:14:52;97868.97;;;15.58;100.00
65276;BME280;51875;49.994;14.052;2023-05-23T04:16:08;97870.78;;;15.58;100.00
65276;BME280;51875;49.994;14.052;2023-05-23T04:17:24;97870.66;;;15.59;100.00
65276;BME280;51875;49.994;14.052;2023-05-23T04:18:40;97868.22;;;15.56;100.00
65276;BME280;51875;49.994;14.052;2023-05-23T04:19:56;97869.50;;;15.49;100.00
65276;BME280;51875;49.994;14.052;2023-05-23T04:21:12;97858.34;;;15.60;100.00
65276;BME280;51875;49.994;14.052;2023-05-23T04:22:27;97852.50;;;15.69;100.00
65276;BME280;51875;49.994;14.052;2023-05-23T04:23:43;97845.25;;;15.73;100.00
65276;BME280;51875;49.994;14.052;2023-05-23T04:24:59;97846.91;;;15.59;100.00
65276;BME280;51875;49.994;14.052;2023-05-23T04:26:14;97847.22;;;15.69;100.00
65276;BME280;51875;49.994;14.052;2023-05-23T04:27:30;97852.25;;;15.74;100.00
65276;BME280;51875;49.994;14.052;2023-05-23T04:28:46;97848.09;;;15.70;100.00
65276;BME280;51875;49.994;14.052;2023-05-23T04:30:03;97842.63;;;15.73;100.00
65276;BME280;51875;49.994;14.052;2023-05-23T04:31:22;97839.72;;;15.77;100.00
65276;BME280;51875;49.994;14.052;2023-05-23T04:32:37;97844.09;;;15.62;100.00
65276;BME280;51875;49.994;14.052;2023-05-23T04:33:53;97836.94;;;15.64;100.00
65276;BME280;51875;49.994;14.052;2023-05-23T04:35:09;97836.66;;;15.69;100.00
65276;BME280;51875;49.994;14.052;2023-05-23T04:36:25;97836.88;;;15.97;100.00
65276;BME280;51875;49.994;14.052;2023-05-23T04:37:41;97837.91;;;16.08;100.00
65276;BME280;51875;49.994;14.052;2023-05-23T04:38:56;97833.22;;;16.14;100.00
65276;BME280;51875;49.994;14.052;2023-05-23T04:40:12;97831.97;;;16.19;100.00
65276;BME280;51875;49.994;14.052;2023-05-23T04:41:28;97833.88;;;16.32;100.00
65276;BME280;51875;49.994;14.052;2023-05-23T04:42:44;97832.56;;;16.39;100.00
65276;BME280;51875;49.994;14.052;2023-05-23T04:44:00;97833.38;;;16.40;100.00
65276;BME280;51875;49.994;14.052;2023-05-23T04:45:16;97834.66;;;16.48;100.00
65276;BME280;51875;49.994;14.052;2023-05-23T04:46:33;97834.91;;;16.73;100.00
65276;BME280;51875;49.994;14.052;2023-05-23T04:47:49;97835.44;;;16.78;100.00
65276;BME280;51875;49.994;14.052;2023-05-23T04:49:05;97839.31;;;16.72;100.00
65276;BME280;51875;49.994;14.052;2023-05-23T04:50:20;97833.28;;;16.70;100.00
65276;BME280;51875;49.994;14.052;2023-05-23T04:51:38;97836.97;;;16.53;100.00
65276;BME280;51875;49.994;14.052;2023-05-23T04:52:54;97838.09;;;16.63;100.00
65276;BME280;51875;49.994;14.052;2023-05-23T04:54:10;97836.13;;;16.52;100.00
65276;BME280;51875;49.994;14.052;2023-05-23T04:55:25;97835.84;;;16.57;100.00
65276;BME280;51875;49.994;14.052;2023-05-23T04:56:41;97841.00;;;16.73;100.00
65276;BME280;51875;49.994;14.052;2023-05-23T04:57:57;97838.50;;;16.72;100.00
65276;BME280;51875;49.994;14.052;2023-05-23T04:59:12;97844.06;;;16.67;100.00
65276;BME280;51875;49.994;14.052;2023-05-23T05:00:28;97843.88;;;16.56;100.00
65276;BME280;51875;49.994;14.052;2023-05-23T05:01:44;97845.38;;;16.60;100.00
65276;BME280;51875;49.994;14.052;2023-05-23T05:03:00;97846.22;;;16.75;100.00
65276;BME280;51875;49.994;14.052;2023-05-23T05:04:16;97836.00;;;16.83;100.00
65276;BME280;51875;49.994;14.052;2023-05-23T05:05:31;97837.41;;;16.89;100.00
65276;BME280;51875;49.994;14.052;2023-05-23T05:06:47;97842.53;;;16.77;100.00
65276;BME280;51875;49.994;14.052;2023-05-23T05:08:03;97843.84;;;16.85;100.00
65276;BME280;51875;49.994;14.052;2023-05-23T05:09:18;97851.22;;;16.79;100.00
65276;BME280;51875;49.994;14.052;2023-05-23T05:10:34;97846.78;;;16.51;100.00
65276;BME280;51875;49.994;14.052;2023-05-23T05:11:49;97844.25;;;16.49;100.00
65276;BME280;51875;49.994;14.052;2023-05-23T05:13:05;97846.41;;;16.72;100.00
65276;BME280;51875;49.994;14.052;2023-05-23T05:14:20;97846.72;;;16.52;100.00
65276;BME280;51875;49.994;14.052;2023-05-23T05:15:36;97841.97;;;16.58;100.00
65276;BME280;51875;49.994;14.052;2023-05-23T05:16:52;97838.25;;;16.89;100.00
65276;BME280;51875;49.994;14.052;2023-05-23T05:18:08;97842.19;;;16.97;100.00
65276;BME280;51875;49.994;14.052;2023-05-23T05:19:24;97840.56;;;17.23;100.00
65276;BME280;51875;49.994;14.052;2023-05-23T05:20:41;97832.13;;;17.31;100.00
65276;BME280;51875;49.994;14.052;2023-05-23T05:21:57;97835.00;;;17.41;100.00
65276;BME280;51875;49.994;14.052;2023-05-23T05:23:14;97833.38;;;17.25;100.00
65276;BME280;51875;49.994;14.052;2023-05-23T05:24:30;97831.34;;;17.56;100.00
65276;BME280;51875;49.994;14.052;2023-05-23T05:25:47;97831.47;;;17.68;100.00
65276;BME280;51875;49.994;14.052;2023-05-23T05:27:02;97826.84;;;17.84;100.00
65276;BME280;51875;49.994;14.052;2023-05-23T05:28:18;97833.31;;;17.80;100.00
65276;BME280;51875;49.994;14.052;2023-05-23T05:29:35;97830.66;;;17.80;100.00
65276;BME280;51875;49.994;14.052;2023-05-23T05:30:50;97835.84;;;17.95;100.00
65276;BME280;51875;49.994;14.052;2023-05-23T05:32:09;97830.88;;;17.77;100.00
65276;BME280;51875;49.994;14.052;2023-05-23T05:33:24;97830.13;;;17.75;100.00
65276;BME280;51875;49.994;14.052;2023-05-23T05:34:40;97827.91;;;17.95;100.00
65276;BME280;51875;49.994;14.052;2023-05-23T05:35:57;97821.97;;;17.91;100.00
65276;BME280;51875;49.994;14.052;2023-05-23T05:37:13;97818.31;;;18.06;100.00
65276;BME280;51875;49.994;14.052;2023-05-23T05:38:29;97813.97;;;18.18;100.00
65276;BME280;51875;49.994;14.052;2023-05-23T05:39:45;97817.25;;;18.09;100.00
65276;BME280;51875;49.994;14.052;2023-05-23T05:41:00;97832.53;;;18.18;100.00
65276;BME280;51875;49.994;14.052;2023-05-23T05:42:16;97840.66;;;18.02;100.00
65276;BME280;51875;49.994;14.052;2023-05-23T05:43:31;97857.84;;;17.69;100.00
65276;BME280;51875;49.994;14.052;2023-05-23T05:44:47;97865.56;;;17.32;100.00
65276;BME280;51875;49.994;14.052;2023-05-23T05:46:03;97869.75;;;17.21;100.00
65276;BME280;51875;49.994;14.052;2023-05-23T05:47:19;97864.41;;;17.08;100.00
65276;BME280;51875;49.994;14.052;2023-05-23T05:48:34;97860.81;;;17.10;100.00
65276;BME280;51875;49.994;14.052;2023-05-23T05:49:50;97874.09;;;17.22;100.00
65276;BME280;51875;49.994;14.052;2023-05-23T05:51:06;97863.00;;;17.30;100.00
65276;BME280;51875;49.994;14.052;2023-05-23T05:52:21;97869.44;;;17.26;100.00
65276;BME280;51875;49.994;14.052;2023-05-23T05:53:37;97873.66;;;17.43;100.00
65276;BME280;51875;49.994;14.052;2023-05-23T05:54:53;97874.00;;;17.51;100.00
65276;BME280;51875;49.994;14.052;2023-05-23T05:56:08;97871.97;;;17.42;100.00
65276;BME280;51875;49.994;14.052;2023-05-23T05:57:24;97869.09;;;17.45;100.00
65276;BME280;51875;49.994;14.052;2023-05-23T05:58:40;97871.84;;;17.71;100.00
65276;BME280;51875;49.994;14.052;2023-05-23T05:59:55;97864.50;;;17.62;100.00
65276;BME280;51875;49.994;14.052;2023-05-23T06:01:11;97872.72;;;17.44;100.00
65276;BME280;51875;49.994;14.052;2023-05-23T06:02:26;97869.84;;;17.75;100.00
65276;BME280;51875;49.994;14.052;2023-05-23T06:03:42;97869.00;;;17.87;100.00
65276;BME280;51875;49.994;14.052;2023-05-23T06:04:58;97868.81;;;17.90;100.00
65276;BME280;51875;49.994;14.052;2023-05-23T06:06:15;97879.97;;;18.09;100.00
65276;BME280;51875;49.994;14.052;2023-05-23T06:07:30;97883.81;;;17.77;100.00
65276;BME280;51875;49.994;14.052;2023-05-23T06:08:46;97879.34;;;17.64;100.00
65276;BME280;51875;49.994;14.052;2023-05-23T06:10:02;97879.03;;;17.69;100.00
65276;BME280;51875;49.994;14.052;2023-05-23T06:11:17;97881.16;;;17.77;100.00
65276;BME280;51875;49.994;14.052;2023-05-23T06:12:34;97877.97;;;17.72;100.00
65276;BME280;51875;49.994;14.052;2023-05-23T06:13:50;97880.72;;;17.43;100.00
65276;BME280;51875;49.994;14.052;2023-05-23T06:15:06;97881.69;;;17.69;100.00
65276;BME280;51875;49.994;14.052;2023-05-23T06:16:22;97882.94;;;18.17;100.00
65276;BME280;51875;49.994;14.052;2023-05-23T06:17:37;97889.28;;;18.14;100.00
65276;BME280;51875;49.994;14.052;2023-05-23T06:18:53;97886.03;;;18.37;100.00
65276;BME280;51875;49.994;14.052;2023-05-23T06:20:09;97885.94;;;18.25;100.00
65276;BME280;51875;49.994;14.052;2023-05-23T06:21:26;97881.78;;;18.08;100.00
65276;BME280;51875;49.994;14.052;2023-05-23T06:22:42;97883.03;;;18.15;100.00
65276;BME280;51875;49.994;14.052;2023-05-23T06:23:57;97877.56;;;18.44;100.00
65276;BME280;51875;49.994;14.052;2023-05-23T06:25:13;97878.09;;;18.24;100.00
65276;BME280;51875;49.994;14.052;2023-05-23T06:26:28;97876.72;;;18.31;100.00
65276;BME280;51875;49.994;14.052;2023-05-23T06:27:44;97880.78;;;17.96;100.00
65276;BME280;51875;49.994;14.052;2023-05-23T06:29:00;97879.34;;;18.05;100.00
65276;BME280;51875;49.994;14.052;2023-05-23T06:30:15;97873.53;;;18.26;100.00
65276;BME280;51875;49.994;14.052;2023-05-23T06:31:31;97878.19;;;18.35;100.00
65276;BME280;51875;49.994;14.052;2023-05-23T06:32:47;97879.56;;;18.54;100.00
65276;BME280;51875;49.994;14.052;2023-05-23T06:34:02;97881.06;;;18.58;100.00
65276;BME280;51875;49.994;14.052;2023-05-23T06:35:18;97880.41;;;18.54;100.00
65276;BME280;51875;49.994;14.052;2023-05-23T06:36:33;97882.03;;;18.31;100.00
65276;BME280;51875;49.994;14.052;2023-05-23T06:37:49;97876.28;;;18.37;100.00
65276;BME280;51875;49.994;14.052;2023-05-23T06:39:05;97876.16;;;18.52;100.00
65276;BME280;51875;49.994;14.052;2023-05-23T06:40:21;97879.88;;;18.62;100.00